Brownwood, Texas
Current Conditions -  °F | °C
As of 2:35 PM on Thursday 23 Oct 2014 (Local Time) from KBWD Reporting Station
Few Clouds Few Clouds  
Wind Chill: 79°   Ceiling: Unl
Heat Index: 80°   Visibility: 10mi
Dew Point: 59°   Wind: 7mph
Humidity: 51%   Direction: 170°S
Pressure: 30.09"   Gusts: NA
Location:  31.73°N, 98.98°W
Report Text: KBWD 231935Z AUTO 17006KT 10SM FEW043 26/15 A3009 RMK AO2
Loading
Personal Weather Stations






























Interactive Weather Map
Tropical Storm Tracking
New forecast layout! Learn more

10-Day Weather Forecast

Advertisements
Track Severe Weather on mobile